createdAt,value
2022-09-06T00:01:46.461Z,6.15
2022-09-06T00:04:15.571Z,3.90
2022-09-06T00:06:42.866Z,4.03
2022-09-06T00:09:09.992Z,5.07
2022-09-06T00:11:37.888Z,5.28
2022-09-06T00:14:05.065Z,3.00
2022-09-06T00:16:32.272Z,3.83
2022-09-06T00:18:59.538Z,3.70
2022-09-06T00:21:29.018Z,4.28
2022-09-06T00:23:56.497Z,3.55
2022-09-06T00:26:24.223Z,5.20
2022-09-06T00:28:51.428Z,4.00
2022-09-06T00:31:19.821Z,3.30
2022-09-06T00:33:47.027Z,3.88
2022-09-06T00:36:14.558Z,4.65
2022-09-06T00:38:41.887Z,3.30
2022-09-06T00:41:10.344Z,2.95
2022-09-06T00:43:37.795Z,4.90
2022-09-06T00:46:06.180Z,3.67
2022-09-06T00:48:33.580Z,2.10
2022-09-06T00:51:02.548Z,3.25
2022-09-06T00:53:31.064Z,2.83
2022-09-06T00:55:58.346Z,7.32
2022-09-06T00:58:26.214Z,3.20
2022-09-06T01:00:53.736Z,4.10
2022-09-06T01:03:22.715Z,5.05
2022-09-06T01:05:54.563Z,4.07
2022-09-06T01:08:28.272Z,5.90
2022-09-06T01:10:58.237Z,3.83
2022-09-06T01:13:42.742Z,7.25
2022-09-06T01:16:42.153Z,4.97
2022-09-06T01:19:24.095Z,5.60
2022-09-06T01:21:56.064Z,7.38
2022-09-06T01:24:29.681Z,5.35
2022-09-06T01:27:15.281Z,6.85
2022-09-06T01:29:42.383Z,4.85
2022-09-06T01:32:12.221Z,3.92
2022-09-06T01:34:43.042Z,5.20
2022-09-06T01:37:12.930Z,4.05
2022-09-06T01:39:40.820Z,4.60
2022-09-06T01:42:10.711Z,3.35
2022-09-06T01:44:38.338Z,4.25
2022-09-06T01:47:05.549Z,5.90
2022-09-06T01:49:41.903Z,3.80
2022-09-06T01:52:09.038Z,6.10
2022-09-06T01:54:47.318Z,3.88
2022-09-06T01:57:23.380Z,7.20
2022-09-06T02:00:05.783Z,3.45
2022-09-06T02:02:32.995Z,5.43
2022-09-06T02:05:06.616Z,4.60
2022-09-06T02:07:35.656Z,3.35
2022-09-06T02:10:15.666Z,4.18
2022-09-06T02:12:44.137Z,6.80
2022-09-06T02:15:16.619Z,10.40
2022-09-06T02:17:45.478Z,4.15
2022-09-06T02:20:24.052Z,4.68
2022-09-06T02:22:52.200Z,2.70
2022-09-06T02:25:22.628Z,5.90
2022-09-06T02:27:49.851Z,6.90
2022-09-06T02:30:17.087Z,2.53
2022-09-06T02:32:47.430Z,6.03
2022-09-06T02:35:16.755Z,3.92
2022-09-06T02:37:44.145Z,4.15
2022-09-06T02:40:11.606Z,5.63
2022-09-06T02:42:40.003Z,3.42
2022-09-06T02:45:07.368Z,4.18
2022-09-06T02:47:34.530Z,3.22
2022-09-06T02:50:01.781Z,3.85
2022-09-06T02:52:28.919Z,4.05
2022-09-06T02:54:56.555Z,5.35
2022-09-06T02:57:23.711Z,3.17
2022-09-06T02:59:51.390Z,3.95
2022-09-06T03:02:18.704Z,5.95
2022-09-06T03:04:45.942Z,7.35
2022-09-06T03:07:13.122Z,3.00
2022-09-06T03:09:41.466Z,4.22
2022-09-06T03:12:08.678Z,3.38
2022-09-06T03:14:36.142Z,6.25
2022-09-06T03:17:04.620Z,3.72
2022-09-06T03:19:31.887Z,4.18
2022-09-06T03:21:59.044Z,3.10
2022-09-06T03:24:26.273Z,3.67
2022-09-06T03:26:53.397Z,7.03
2022-09-06T03:29:20.546Z,2.58
2022-09-06T03:31:47.672Z,3.78
2022-09-06T03:34:14.821Z,4.60
2022-09-06T03:36:41.934Z,3.55
2022-09-06T03:39:09.497Z,3.10
2022-09-06T03:41:38.149Z,7.82
2022-09-06T03:44:05.624Z,8.30
2022-09-06T03:46:32.838Z,4.22
2022-09-06T03:49:01.856Z,4.70
2022-09-06T03:51:29.027Z,3.92
2022-09-06T03:53:56.293Z,6.30
2022-09-06T03:56:23.426Z,3.17
2022-09-06T03:58:50.651Z,6.85
2022-09-06T04:01:17.823Z,3.17
2022-09-06T04:03:44.981Z,4.50
2022-09-06T04:06:12.319Z,5.68
2022-09-06T04:08:40.542Z,5.63
2022-09-06T04:11:07.721Z,6.32
2022-09-06T04:13:35.246Z,6.80
2022-09-06T04:16:02.982Z,6.35
2022-09-06T04:18:30.271Z,4.47
2022-09-06T04:20:57.802Z,4.75
2022-09-06T04:23:26.656Z,4.40
2022-09-06T04:25:54.753Z,3.83
2022-09-06T04:28:22.672Z,5.07
2022-09-06T04:31:07.830Z,5.75
2022-09-06T04:33:36.321Z,7.90
2022-09-06T04:36:04.762Z,10.07
2022-09-06T04:38:35.154Z,4.05
2022-09-06T04:41:02.307Z,7.75
2022-09-06T04:43:29.505Z,5.25
2022-09-06T04:45:56.700Z,6.13
2022-09-06T04:48:23.995Z,7.25
2022-09-06T04:50:51.204Z,5.28
2022-09-06T04:53:18.365Z,3.85
2022-09-06T04:55:45.524Z,5.85
2022-09-06T04:58:12.679Z,4.82
2022-09-06T05:00:41.774Z,5.68
2022-09-06T05:03:09.851Z,5.22
2022-09-06T05:05:37.012Z,3.95
2022-09-06T05:08:04.245Z,2.97
2022-09-06T05:10:31.353Z,6.20
2022-09-06T05:12:58.492Z,5.43
2022-09-06T05:15:25.863Z,5.65
2022-09-06T05:17:52.978Z,4.00
2022-09-06T05:20:20.166Z,3.17
2022-09-06T05:22:56.209Z,4.93
2022-09-06T05:25:23.313Z,4.10
2022-09-06T05:27:50.507Z,4.15
2022-09-06T05:30:18.329Z,6.53
2022-09-06T05:32:45.480Z,4.78
2022-09-06T05:35:12.770Z,5.93
2022-09-06T05:37:39.956Z,6.07
2022-09-06T05:40:07.491Z,6.93
2022-09-06T05:42:35.071Z,5.10
2022-09-06T05:45:02.413Z,6.80
2022-09-06T05:47:31.192Z,4.43
2022-09-06T05:49:58.405Z,5.60
2022-09-06T05:52:25.528Z,8.43
2022-09-06T05:54:52.670Z,10.00
2022-09-06T05:57:19.809Z,8.95
2022-09-06T05:59:46.940Z,6.45
2022-09-06T06:02:14.118Z,7.78
2022-09-06T06:04:41.391Z,8.25
2022-09-06T06:07:08.531Z,8.18
2022-09-06T06:09:35.695Z,5.35
2022-09-06T06:12:02.918Z,6.35
2022-09-06T06:14:30.104Z,12.25
2022-09-06T06:16:57.339Z,6.78
2022-09-06T06:19:26.570Z,10.32
2022-09-06T06:21:53.799Z,6.90
2022-09-06T06:24:20.932Z,8.95
2022-09-06T06:26:48.121Z,6.70
2022-09-06T06:29:15.256Z,7.57
2022-09-06T06:31:42.526Z,8.15
2022-09-06T06:34:09.770Z,5.93
2022-09-06T06:36:37.307Z,7.28
2022-09-06T06:39:06.394Z,8.65
2022-09-06T06:41:33.696Z,7.85
2022-09-06T06:44:04.961Z,5.93
2022-09-06T06:46:33.509Z,7.60
2022-09-06T06:49:00.680Z,7.40
2022-09-06T06:51:29.492Z,6.15
2022-09-06T06:53:56.980Z,6.53
2022-09-06T06:56:25.654Z,12.07
2022-09-06T06:58:54.235Z,6.55
2022-09-06T07:01:22.510Z,8.48
2022-09-06T07:03:50.045Z,11.30
2022-09-06T07:06:17.981Z,8.82
2022-09-06T07:08:45.586Z,8.20
2022-09-06T07:11:13.323Z,12.13
2022-09-06T07:13:40.543Z,6.68
2022-09-06T07:16:08.264Z,7.80
2022-09-06T07:18:43.668Z,6.40
2022-09-06T07:24:08.172Z,7.32
2022-09-06T07:26:36.648Z,6.03
2022-09-06T07:29:04.744Z,7.68
2022-09-06T07:34:20.516Z,6.85
2022-09-06T07:36:48.392Z,10.52
2022-09-06T07:39:15.559Z,8.93
2022-09-06T07:41:43.545Z,6.45
2022-09-06T07:44:10.751Z,10.75
2022-09-06T07:46:38.230Z,8.18
2022-09-06T07:49:06.101Z,9.10
2022-09-06T07:51:33.573Z,10.20
2022-09-06T07:54:26.410Z,9.70
2022-09-06T07:56:48.495Z,7.35
2022-09-06T07:59:16.046Z,13.73
2022-09-06T08:01:43.445Z,7.15
2022-09-06T08:04:17.900Z,10.23
2022-09-06T08:09:39.213Z,12.63
2022-09-06T08:12:07.426Z,10.50
2022-09-06T08:14:35.243Z,7.93
2022-09-06T08:17:02.949Z,8.30
2022-09-06T08:19:30.134Z,6.70
2022-09-06T08:21:57.299Z,7.68
2022-09-06T08:24:24.452Z,4.97
2022-09-06T08:26:51.675Z,6.15
2022-09-06T08:29:19.962Z,8.02
2022-09-06T08:31:47.293Z,5.28
2022-09-06T08:34:15.145Z,4.90
2022-09-06T08:36:42.510Z,4.88
2022-09-06T08:39:10.441Z,4.88
2022-09-06T08:41:48.400Z,7.03
2022-09-06T08:47:15.319Z,6.28
2022-09-06T08:49:44.924Z,4.57
2022-09-06T08:52:18.282Z,5.47
2022-09-06T08:54:54.399Z,5.88
2022-09-06T08:57:39.961Z,5.25
2022-09-06T09:00:11.074Z,5.35
2022-09-06T09:05:06.486Z,6.53
2022-09-06T09:07:47.972Z,4.72
2022-09-06T09:10:21.975Z,7.00
2022-09-06T09:12:49.349Z,8.52
2022-09-06T09:15:18.035Z,10.38
2022-09-06T09:17:46.024Z,4.55
2022-09-06T09:20:13.276Z,6.32
2022-09-06T09:22:40.658Z,5.03
2022-09-06T09:25:09.249Z,2.90
2022-09-06T09:27:37.358Z,5.03
2022-09-06T09:32:53.691Z,7.25
2022-09-06T09:35:42.145Z,6.90
2022-09-06T09:38:14.350Z,9.07
2022-09-06T09:40:42.724Z,10.65
2022-09-06T09:43:11.947Z,7.32
2022-09-06T09:45:39.078Z,6.97
2022-09-06T09:48:20.563Z,4.65
2022-09-06T09:50:47.750Z,8.50
2022-09-06T09:53:16.111Z,4.78
2022-09-06T09:55:44.166Z,3.28
2022-09-06T09:58:37.437Z,6.47
2022-09-06T10:01:11.921Z,4.43
2022-09-06T10:09:31.628Z,3.22
2022-09-06T10:11:59.587Z,2.53
2022-09-06T10:14:26.937Z,1.83
2022-09-06T10:16:54.198Z,2.13
2022-09-06T10:19:30.481Z,3.42
2022-09-06T10:22:03.931Z,3.70
2022-09-06T10:24:57.429Z,3.03
2022-09-06T10:27:27.080Z,3.10
2022-09-06T10:30:08.333Z,2.92
2022-09-06T10:32:42.819Z,5.03
2022-09-06T10:35:13.891Z,2.65
2022-09-06T10:38:00.112Z,3.05
2022-09-06T10:40:35.459Z,4.90
2022-09-06T10:43:04.063Z,5.55
2022-09-06T10:45:34.111Z,6.22
2022-09-06T10:48:14.888Z,2.87
2022-09-06T10:53:30.022Z,3.83
2022-09-06T10:56:03.170Z,4.80
2022-09-06T11:01:42.958Z,6.10
2022-09-06T11:04:13.213Z,8.88
2022-09-06T11:06:50.549Z,4.25
2022-09-06T11:09:25.937Z,7.68
2022-09-06T11:12:14.971Z,4.75
2022-09-06T11:14:42.100Z,3.03
2022-09-06T11:17:09.237Z,3.00
2022-09-06T11:19:52.307Z,3.85
2022-09-06T11:22:19.590Z,4.40
2022-09-06T11:25:02.108Z,3.42
2022-09-06T11:27:33.987Z,4.32
2022-09-06T11:30:02.522Z,2.25
2022-09-06T11:32:35.448Z,5.53
2022-09-06T11:35:05.151Z,7.13
2022-09-06T11:37:34.339Z,3.47
2022-09-06T11:42:54.839Z,2.95
2022-09-06T11:45:39.131Z,4.72
2022-09-06T11:48:25.278Z,4.72
2022-09-06T11:51:00.972Z,5.53
2022-09-06T11:53:36.181Z,5.90
2022-09-06T11:56:03.332Z,4.68
2022-09-06T11:58:42.485Z,5.53
2022-09-06T12:01:12.369Z,6.05
2022-09-06T12:04:09.087Z,4.05
2022-09-06T12:06:45.192Z,10.60
2022-09-06T12:09:30.957Z,4.88
2022-09-06T12:11:58.997Z,9.70
2022-09-06T12:14:29.202Z,6.43
2022-09-06T12:16:56.291Z,5.13
2022-09-06T12:19:44.063Z,7.95
2022-09-06T12:22:30.162Z,2.95
2022-09-06T12:25:01.329Z,6.63
2022-09-06T12:30:04.318Z,4.47
2022-09-06T12:32:37.318Z,4.07
2022-09-06T12:38:01.512Z,5.72
2022-09-06T12:40:30.521Z,5.10
2022-09-06T12:42:57.867Z,3.83
2022-09-06T12:45:27.546Z,2.85
2022-09-06T12:48:05.601Z,2.80
2022-09-06T12:50:32.752Z,4.70
2022-09-06T12:53:02.154Z,3.47
2022-09-06T12:55:34.363Z,4.72
2022-09-06T12:58:03.081Z,4.90
2022-09-06T13:00:51.121Z,6.90
2022-09-06T13:03:31.039Z,4.78
2022-09-06T13:05:59.655Z,7.13
2022-09-06T13:08:36.305Z,9.48
2022-09-06T13:11:04.493Z,4.50
2022-09-06T13:13:31.721Z,4.63
2022-09-06T13:15:59.002Z,3.50
2022-09-06T13:18:36.787Z,4.90
2022-09-06T13:21:08.048Z,2.70
2022-09-06T13:23:42.768Z,5.53
2022-09-06T13:26:10.210Z,3.05
2022-09-06T13:28:37.794Z,10.20
2022-09-06T13:31:08.252Z,4.05
2022-09-06T13:33:36.039Z,7.63
2022-09-06T13:36:06.366Z,3.85
2022-09-06T13:38:33.589Z,4.82
2022-09-06T13:41:17.223Z,3.45
2022-09-06T13:43:46.208Z,4.00
2022-09-06T13:46:13.403Z,4.03
2022-09-06T13:48:41.566Z,8.48
2022-09-06T13:51:10.123Z,2.55
2022-09-06T13:53:37.298Z,5.13
2022-09-06T13:56:08.409Z,4.35
2022-09-06T14:01:03.225Z,5.57
2022-09-06T14:03:31.744Z,4.43
2022-09-06T14:06:02.836Z,3.30
2022-09-06T14:08:43.829Z,4.45
2022-09-06T14:11:16.908Z,5.57
2022-09-06T14:13:44.230Z,3.88
2022-09-06T14:16:11.845Z,4.55
2022-09-06T14:18:40.054Z,3.17
2022-09-06T14:21:07.529Z,2.40
2022-09-06T14:23:34.725Z,4.72
2022-09-06T14:26:02.927Z,3.78
2022-09-06T14:28:32.052Z,4.15
2022-09-06T14:30:59.249Z,2.72
2022-09-06T14:33:26.470Z,3.28
2022-09-06T14:35:53.617Z,5.40
2022-09-06T14:38:20.792Z,3.97
2022-09-06T14:40:47.893Z,3.42
2022-09-06T14:43:15.835Z,4.75
2022-09-06T14:45:43.027Z,4.10
2022-09-06T14:48:10.463Z,5.90
2022-09-06T14:50:37.734Z,5.25
2022-09-06T14:53:24.090Z,5.70
2022-09-06T14:55:53.743Z,3.20
2022-09-06T14:58:20.882Z,5.22
2022-09-06T15:00:50.101Z,3.72
2022-09-06T15:03:17.214Z,4.32
2022-09-06T15:05:44.354Z,8.20
2022-09-06T15:08:12.279Z,2.90
2022-09-06T15:10:39.399Z,5.05
2022-09-06T15:13:06.551Z,5.50
2022-09-06T15:15:33.715Z,8.55
2022-09-06T15:18:00.863Z,4.65
2022-09-06T15:20:27.977Z,4.25
2022-09-06T15:23:15.173Z,6.28
2022-09-06T15:25:49.393Z,4.15
2022-09-06T15:28:17.862Z,3.03
2022-09-06T15:30:45.270Z,3.60
2022-09-06T15:33:14.848Z,4.38
2022-09-06T15:35:43.213Z,3.70
2022-09-06T15:38:13.505Z,4.97
2022-09-06T15:40:40.609Z,2.87
2022-09-06T15:43:08.031Z,3.38
2022-09-06T15:45:47.266Z,4.25
2022-09-06T15:48:15.865Z,7.70
2022-09-06T15:50:51.273Z,5.82
2022-09-06T15:53:19.388Z,4.82
2022-09-06T15:55:56.118Z,3.83
2022-09-06T15:58:23.972Z,4.38
2022-09-06T16:01:05.118Z,5.93
2022-09-06T16:03:32.933Z,9.63
2022-09-06T16:08:53.806Z,5.85
2022-09-06T16:11:20.927Z,9.40
2022-09-06T16:13:48.040Z,5.15
2022-09-06T16:16:16.333Z,4.63
2022-09-06T16:18:44.680Z,4.22
2022-09-06T16:21:24.217Z,9.43
2022-09-06T16:23:55.333Z,5.65
2022-09-06T16:26:23.420Z,7.18
2022-09-06T16:28:51.540Z,9.60
2022-09-06T16:31:19.458Z,10.85
2022-09-06T16:33:48.735Z,10.05
2022-09-06T16:36:15.955Z,7.53
2022-09-06T16:38:43.619Z,12.95
2022-09-06T16:41:10.930Z,9.65
2022-09-06T16:43:38.183Z,9.93
2022-09-06T16:46:05.626Z,6.97
2022-09-06T16:48:33.552Z,12.52
2022-09-06T16:51:08.901Z,10.43
2022-09-06T16:53:36.353Z,11.07
2022-09-06T16:56:03.938Z,16.50
2022-09-06T16:58:31.245Z,12.63
2022-09-06T17:00:58.479Z,13.43
2022-09-06T17:03:25.968Z,15.27
2022-09-06T17:05:53.678Z,11.02
2022-09-06T17:08:21.044Z,13.23
2022-09-06T17:10:48.402Z,13.40
2022-09-06T17:13:15.819Z,14.98
2022-09-06T17:16:01.556Z,16.23
2022-09-06T17:18:28.779Z,14.65
2022-09-06T17:21:04.590Z,17.08
2022-09-06T17:23:32.190Z,13.60
2022-09-06T17:25:59.336Z,10.02
2022-09-06T17:28:26.602Z,14.27
2022-09-06T17:30:53.970Z,11.43
2022-09-06T17:33:22.094Z,15.02
2022-09-06T17:35:49.242Z,13.68
2022-09-06T17:38:16.538Z,16.08
2022-09-06T17:40:43.768Z,13.48
2022-09-06T17:43:11.051Z,14.10
2022-09-06T17:45:39.216Z,14.88
2022-09-06T17:48:06.471Z,19.17
2022-09-06T17:50:34.153Z,21.33
2022-09-06T17:53:01.744Z,19.80
2022-09-06T17:55:29.351Z,15.95
2022-09-06T17:57:56.984Z,20.48
2022-09-06T18:00:24.756Z,14.77
2022-09-06T18:02:52.001Z,12.40
2022-09-06T18:05:19.477Z,15.10
2022-09-06T18:07:47.372Z,13.80
2022-09-06T18:10:15.132Z,15.27
2022-09-06T18:12:42.889Z,14.18
2022-09-06T18:15:10.482Z,13.63
2022-09-06T18:17:37.786Z,9.38
2022-09-06T18:20:06.007Z,12.48
2022-09-06T18:22:33.370Z,8.18
2022-09-06T18:25:00.722Z,7.88
2022-09-06T18:27:28.263Z,8.55
2022-09-06T18:29:55.728Z,10.73
2022-09-06T18:32:23.287Z,9.77
2022-09-06T18:34:50.774Z,8.82
2022-09-06T18:37:18.750Z,7.03
2022-09-06T18:39:46.456Z,9.43
2022-09-06T18:42:14.309Z,7.75
2022-09-06T18:44:42.567Z,8.93
2022-09-06T18:47:12.529Z,9.80
2022-09-06T18:49:43.915Z,12.02
2022-09-06T18:52:12.412Z,8.95
2022-09-06T18:54:40.383Z,11.60
2022-09-06T18:57:08.268Z,10.68
2022-09-06T18:59:36.006Z,13.60
2022-09-06T19:02:03.962Z,8.85
2022-09-06T19:04:31.824Z,12.68
2022-09-06T19:07:02.360Z,8.93
2022-09-06T19:09:30.169Z,8.63
2022-09-06T19:11:57.996Z,9.68
2022-09-06T19:14:26.074Z,9.77
2022-09-06T19:16:54.711Z,11.05
2022-09-06T19:19:24.319Z,7.88
2022-09-06T19:21:52.277Z,10.90
2022-09-06T19:24:25.005Z,11.73
2022-09-06T19:26:53.918Z,11.45
2022-09-06T19:29:22.041Z,14.85
2022-09-06T19:31:50.050Z,11.98
2022-09-06T19:34:18.063Z,14.07
2022-09-06T19:36:47.478Z,10.02
2022-09-06T19:39:16.663Z,13.38
2022-09-06T19:41:47.137Z,10.93
2022-09-06T19:44:16.133Z,9.53
2022-09-06T19:46:47.416Z,9.45
2022-09-06T19:51:45.547Z,13.13
2022-09-06T19:54:13.608Z,9.10
2022-09-06T19:56:41.214Z,9.95
2022-09-06T19:59:10.432Z,9.57
2022-09-06T20:01:39.062Z,10.60
2022-09-06T20:04:11.052Z,10.80
2022-09-06T20:06:39.095Z,7.88
2022-09-06T20:09:08.246Z,12.88
2022-09-06T20:11:36.861Z,7.72
2022-09-06T20:14:04.861Z,8.30
2022-09-06T20:16:32.367Z,9.32
2022-09-06T20:18:59.911Z,8.43
2022-09-06T20:21:27.831Z,10.32
2022-09-06T20:23:56.052Z,12.30
2022-09-06T20:26:24.096Z,7.30
2022-09-06T20:28:58.208Z,9.75
2022-09-06T20:31:25.890Z,7.32
2022-09-06T20:33:53.058Z,6.90
2022-09-06T20:36:20.704Z,7.32
2022-09-06T20:38:48.536Z,8.52
2022-09-06T20:41:23.618Z,4.95
2022-09-06T20:43:54.647Z,5.85
2022-09-06T20:46:23.744Z,8.43
2022-09-06T20:48:51.808Z,8.88
2022-09-06T20:51:22.673Z,6.05
2022-09-06T20:53:54.107Z,6.80
2022-09-06T20:56:23.086Z,5.97
2022-09-06T20:58:51.474Z,4.85
2022-09-06T21:01:22.424Z,3.75
2022-09-06T21:03:51.388Z,6.97
2022-09-06T21:06:18.902Z,6.82
2022-09-06T21:08:46.149Z,9.88
2022-09-06T21:11:13.462Z,5.18
2022-09-06T21:13:40.696Z,5.68
2022-09-06T21:16:08.646Z,7.95
2022-09-06T21:18:36.192Z,4.40
2022-09-06T21:21:04.961Z,3.78
2022-09-06T21:23:34.182Z,7.78
2022-09-06T21:26:02.311Z,6.38
2022-09-06T21:28:30.296Z,7.82
2022-09-06T21:31:12.821Z,3.45
2022-09-06T21:33:52.515Z,6.25
2022-09-06T21:36:21.060Z,4.97
2022-09-06T21:38:49.174Z,8.27
2022-09-06T21:41:18.233Z,4.43
2022-09-06T21:43:45.711Z,5.82
2022-09-06T21:46:19.786Z,7.57
2022-09-06T21:48:48.012Z,5.72
2022-09-06T21:51:16.400Z,4.70
2022-09-06T21:53:44.478Z,3.85
2022-09-06T21:56:12.211Z,4.65
2022-09-06T21:58:40.031Z,3.58
2022-09-06T22:01:08.726Z,4.00
2022-09-06T22:03:37.513Z,3.47
2022-09-06T22:06:15.441Z,5.38
2022-09-06T22:08:43.820Z,3.75
2022-09-06T22:11:12.008Z,3.55
2022-09-06T22:13:40.380Z,4.60
2022-09-06T22:16:22.439Z,3.47
2022-09-06T22:18:51.513Z,6.45
2022-09-06T22:21:20.320Z,6.22
2022-09-06T22:23:54.985Z,6.63
2022-09-06T22:26:22.889Z,6.00
2022-09-06T22:28:53.644Z,10.95
2022-09-06T22:31:21.170Z,4.30
2022-09-06T22:33:48.664Z,4.30
2022-09-06T22:36:15.836Z,4.10
2022-09-06T22:38:42.998Z,3.50
2022-09-06T22:41:10.137Z,4.35
2022-09-06T22:43:37.361Z,5.53
2022-09-06T22:46:05.929Z,8.10
2022-09-06T22:48:33.803Z,4.68
2022-09-06T22:51:01.259Z,8.00
2022-09-06T22:53:29.255Z,8.88
2022-09-06T22:55:56.596Z,6.13
2022-09-06T22:58:24.630Z,3.65
2022-09-06T23:00:51.981Z,5.75
2022-09-06T23:03:19.520Z,6.90
2022-09-06T23:05:46.739Z,6.95
2022-09-06T23:08:14.760Z,4.32
2022-09-06T23:10:42.777Z,4.45
2022-09-06T23:13:10.517Z,4.65
2022-09-06T23:15:38.342Z,5.30
2022-09-06T23:18:05.628Z,4.45
2022-09-06T23:20:32.774Z,4.43
2022-09-06T23:23:00.031Z,4.53
2022-09-06T23:25:27.202Z,5.32
2022-09-06T23:27:54.387Z,5.60
2022-09-06T23:30:21.605Z,6.38
2022-09-06T23:32:48.807Z,8.90
2022-09-06T23:35:15.932Z,6.13
2022-09-06T23:37:43.129Z,6.80
2022-09-06T23:40:10.799Z,5.18
2022-09-06T23:42:38.016Z,5.68
2022-09-06T23:45:05.971Z,7.18
2022-09-06T23:47:33.338Z,7.30
2022-09-06T23:50:00.526Z,7.70
2022-09-06T23:52:27.684Z,4.93
2022-09-06T23:54:54.884Z,7.65
2022-09-06T23:57:22.056Z,6.93
2022-09-06T23:59:49.249Z,8.70
